Time;durP1;ratioP1;P1;durP2;ratioP2;P2;SDS_P1;SDS_P2;PMS_P1;PMS_P2;Temp;Humidity;BMP_temperature;BMP_pressure;BME280_temperature;BME280_humidity;BME280_pressure;Samples;Min_cycle;Max_cycle;Signal;HPM_P1;HPM_P2
2023/05/25 00:01:58;;;;;;;10.75;5.80;;;;;;;25.81;43.40;99813.97;4246012;33;34065;-63
2023/05/25 00:04:29;;;;;;;6.90;5.35;;;;;;;25.81;43.36;99816.69;4244940;33;35200;-63
2023/05/25 00:06:56;;;;;;;7.40;5.40;;;;;;;25.80;43.37;99813.16;4246147;33;33492;-63
2023/05/25 00:09:24;;;;;;;7.43;5.90;;;;;;;25.80;43.35;99807.69;4246079;33;34562;-63
2023/05/25 00:11:52;;;;;;;7.25;5.35;;;;;;;25.81;43.29;99813.97;4246000;33;34193;-63
2023/05/25 00:14:20;;;;;;;7.65;5.93;;;;;;;25.79;43.33;99816.97;4245160;33;34297;-63
2023/05/25 00:16:47;;;;;;;7.30;5.40;;;;;;;25.79;43.25;99811.50;4244769;33;33941;-63
2023/05/25 00:19:17;;;;;;;8.52;6.20;;;;;;;25.80;43.20;99820.53;4246112;33;34028;-63
2023/05/25 00:21:47;;;;;;;7.97;6.18;;;;;;;25.80;43.15;99820.53;4245954;33;34047;-63
2023/05/25 00:24:14;;;;;;;7.20;5.78;;;;;;;25.79;43.08;99816.13;4245972;33;33468;-63
2023/05/25 00:26:42;;;;;;;7.47;5.95;;;;;;;25.79;43.04;99816.13;4246088;33;34663;-63
2023/05/25 00:29:10;;;;;;;8.70;7.03;;;;;;;25.77;43.04;99810.87;4245881;33;33949;-63
2023/05/25 00:31:38;;;;;;;10.57;6.90;;;;;;;25.76;43.08;99811.97;4246266;33;34722;-63
2023/05/25 00:34:05;;;;;;;9.88;6.53;;;;;;;25.76;43.02;99808.41;4245959;33;33555;-63
2023/05/25 00:36:33;;;;;;;9.40;6.40;;;;;;;25.76;43.02;99811.13;4245838;33;33958;-63
2023/05/25 00:39:00;;;;;;;9.52;6.18;;;;;;;25.75;43.00;99810.28;4245947;33;34784;-63
2023/05/25 00:41:28;;;;;;;7.50;6.05;;;;;;;25.74;43.07;99819.56;4245920;33;33830;-63
2023/05/25 00:43:56;;;;;;;7.47;6.05;;;;;;;25.75;43.01;99820.38;4228661;33;33974;-63
2023/05/25 00:46:23;;;;;;;12.43;6.95;;;;;;;25.74;43.02;99818.69;4260104;33;34038;-63
2023/05/25 00:48:52;;;;;;;8.18;6.25;;;;;;;25.73;43.00;99825.25;4258830;33;33713;-63
2023/05/25 00:51:20;;;;;;;7.05;6.03;;;;;;;25.74;43.15;99821.44;4247020;33;34113;-63
2023/05/25 00:53:47;;;;;;;7.68;6.12;;;;;;;25.73;43.10;99823.34;4259883;33;33632;-63
2023/05/25 00:56:21;;;;;;;8.10;6.37;;;;;;;25.73;43.11;99834.28;4259906;33;33894;-63
2023/05/25 00:58:51;;;;;;;8.07;6.25;;;;;;;25.73;43.17;99827.97;4258602;33;34031;-63
2023/05/25 01:01:20;;;;;;;7.43;6.05;;;;;;;25.73;43.16;99831.53;4258774;33;35109;-63
2023/05/25 01:03:52;;;;;;;9.75;6.60;;;;;;;25.74;43.25;99826.91;4258942;33;33607;-63
2023/05/25 01:06:21;;;;;;;7.95;6.43;;;;;;;25.74;43.27;99824.16;4259901;33;33941;-63
2023/05/25 01:08:53;;;;;;;8.02;6.40;;;;;;;25.73;43.22;99822.50;4246958;33;33870;-63
2023/05/25 01:11:25;;;;;;;8.25;6.35;;;;;;;25.74;43.15;99829.62;4258603;33;33919;-63
2023/05/25 01:13:53;;;;;;;8.55;5.90;;;;;;;25.73;43.22;99827.97;4258619;33;34248;-63
2023/05/25 01:16:21;;;;;;;7.85;5.60;;;;;;;25.74;43.28;99840.56;4246965;33;33882;-63
2023/05/25 01:18:51;;;;;;;7.25;6.15;;;;;;;25.74;43.27;99835.97;4259685;33;34154;-63
2023/05/25 01:21:40;;;;;;;7.30;5.75;;;;;;;25.73;43.34;99838.91;4259778;33;34234;-63
2023/05/25 01:24:29;;;;;;;6.55;5.50;;;;;;;25.73;43.34;99836.16;4258822;33;32678;-63
2023/05/25 01:27:00;;;;;;;6.72;5.70;;;;;;;25.74;43.16;99840.56;4259178;33;33787;-63
2023/05/25 01:29:28;;;;;;;9.77;6.87;;;;;;;25.72;43.13;99835.34;4258524;33;33738;-63
2023/05/25 01:31:56;;;;;;;7.68;6.65;;;;;;;25.71;43.11;99839.16;4258500;33;34174;-63
2023/05/25 01:34:23;;;;;;;7.18;6.12;;;;;;;25.72;43.17;99842.72;4259425;33;33727;-63
2023/05/25 01:36:51;;;;;;;8.07;5.82;;;;;;;25.70;43.15;99841.06;4259616;33;34806;-63
2023/05/25 01:39:22;;;;;;;7.32;6.22;;;;;;;25.70;43.11;99841.06;4258284;33;33874;-63
2023/05/25 01:41:50;;;;;;;7.47;6.18;;;;;;;25.69;43.16;99844.88;4259290;33;33994;-63
2023/05/25 01:44:17;;;;;;;8.52;6.87;;;;;;;25.70;43.14;99840.25;4249970;33;33583;-63
2023/05/25 01:46:45;;;;;;;8.23;6.50;;;;;;;25.70;43.02;99840.25;4245599;33;33632;-63
2023/05/25 01:49:42;;;;;;;8.38;6.43;;;;;;;25.69;42.98;99838.56;4243846;33;34000;-63
2023/05/25 01:52:27;;;;;;;8.88;6.72;;;;;;;25.72;42.99;99846.28;4244011;33;34157;-63
2023/05/25 01:55:10;;;;;;;8.40;6.37;;;;;;;25.70;43.05;99846.53;4232498;33;33112;-63
2023/05/25 01:57:41;;;;;;;7.43;6.05;;;;;;;25.69;43.02;99850.34;4240907;33;33879;-63
2023/05/25 02:00:09;;;;;;;8.05;6.97;;;;;;;25.66;42.98;99850.81;4230037;33;34738;-63
2023/05/25 02:02:40;;;;;;;7.45;6.28;;;;;;;25.67;42.89;99851.63;4229805;33;34195;-63
2023/05/25 02:05:09;;;;;;;8.47;7.27;;;;;;;25.66;42.88;99856.28;4241231;33;33429;-63
2023/05/25 02:07:37;;;;;;;7.43;6.25;;;;;;;25.68;42.82;99845.09;4241497;33;33770;-63
2023/05/25 02:10:05;;;;;;;12.70;6.87;;;;;;;25.66;42.85;99845.34;4231091;33;34403;-63
2023/05/25 02:12:33;;;;;;;10.43;6.30;;;;;;;25.66;42.88;99845.34;4230810;33;33865;-63
2023/05/25 02:15:00;;;;;;;9.10;6.82;;;;;;;25.66;42.86;99853.53;4230703;33;34133;-63
2023/05/25 02:17:30;;;;;;;9.18;6.43;;;;;;;25.65;42.95;99846.41;4230637;33;33932;-63
2023/05/25 02:19:58;;;;;;;7.60;6.53;;;;;;;25.66;42.84;99849.97;4241359;33;34053;-63
2023/05/25 02:22:25;;;;;;;10.38;6.82;;;;;;;25.65;42.84;99854.63;4230854;33;34600;-63
2023/05/25 02:24:53;;;;;;;8.15;6.32;;;;;;;25.64;42.84;99847.47;4230560;33;34195;-63
2023/05/25 02:27:21;;;;;;;9.20;6.12;;;;;;;25.63;42.82;99854.00;4230846;33;34037;-63
2023/05/25 02:29:49;;;;;;;7.28;6.18;;;;;;;25.64;42.81;99860.31;4230662;33;34803;-63
2023/05/25 02:32:16;;;;;;;7.68;6.47;;;;;;;25.64;42.85;99854.84;4230377;33;34213;-63
2023/05/25 02:34:45;;;;;;;9.23;7.43;;;;;;;25.64;42.82;99854.84;4230474;33;33793;-63
2023/05/25 02:37:13;;;;;;;8.27;6.80;;;;;;;25.63;42.77;99864.13;4230558;33;33954;-63
2023/05/25 02:39:41;;;;;;;9.60;6.50;;;;;;;25.63;42.79;99854.00;4232365;33;33955;-63
2023/05/25 02:42:08;;;;;;;7.72;5.93;;;;;;;25.63;42.80;99855.91;4232866;33;34125;-63
2023/05/25 02:44:36;;;;;;;8.50;6.45;;;;;;;25.63;42.79;99866.84;4243614;33;33847;-63
2023/05/25 02:47:05;;;;;;;8.30;6.55;;;;;;;25.62;42.77;99863.28;4246469;33;34021;-63
2023/05/25 02:49:33;;;;;;;7.80;6.22;;;;;;;25.62;42.81;99865.19;4246932;33;34997;-63
2023/05/25 02:52:01;;;;;;;8.93;6.50;;;;;;;25.62;42.84;99871.47;4246519;33;34118;-63
2023/05/25 02:54:28;;;;;;;9.90;6.37;;;;;;;25.62;42.77;99865.19;4246590;33;33419;-63
2023/05/25 02:56:57;;;;;;;8.38;6.28;;;;;;;25.63;42.79;99877.78;4256285;33;33834;-63
2023/05/25 02:59:24;;;;;;;7.97;6.62;;;;;;;25.61;42.79;99863.53;4260942;33;34590;-63
2023/05/25 03:01:52;;;;;;;7.70;6.82;;;;;;;25.61;42.81;99875.28;4260617;33;34338;-63
2023/05/25 03:04:20;;;;;;;8.65;6.72;;;;;;;25.60;42.81;99881.84;4260885;33;33725;-63
2023/05/25 03:06:48;;;;;;;7.75;6.10;;;;;;;25.60;42.78;99881.84;4260634;33;33553;-63
2023/05/25 03:09:15;;;;;;;7.95;6.50;;;;;;;25.59;42.80;99880.16;4260731;33;34676;-63
2023/05/25 03:11:44;;;;;;;8.15;6.40;;;;;;;25.59;42.84;99888.34;4260953;33;35155;-63
2023/05/25 03:14:12;;;;;;;8.80;6.72;;;;;;;25.59;42.70;99882.06;4260844;33;33762;-63
2023/05/25 03:16:40;;;;;;;7.93;6.37;;;;;;;25.59;42.70;99879.31;4260676;33;34755;-63
2023/05/25 03:19:09;;;;;;;7.97;6.72;;;;;;;25.59;42.67;99893.81;4260880;33;34135;-63
2023/05/25 03:21:37;;;;;;;6.90;5.97;;;;;;;25.60;42.65;99890.03;4260517;33;34090;-63
2023/05/25 03:24:05;;;;;;;8.07;6.65;;;;;;;25.59;42.64;99890.25;4260782;33;32467;-63
2023/05/25 03:26:33;;;;;;;7.70;6.22;;;;;;;25.58;42.72;99892.16;4260585;33;33581;-63
2023/05/25 03:29:01;;;;;;;7.75;6.53;;;;;;;25.59;42.71;99892.97;4260768;33;33988;-63
2023/05/25 03:31:29;;;;;;;8.05;6.68;;;;;;;25.58;42.70;99889.41;4259327;33;34578;-63
2023/05/25 03:33:57;;;;;;;8.02;6.45;;;;;;;25.59;42.68;99890.25;4260638;33;34290;-63
2023/05/25 03:36:29;;;;;;;8.43;6.45;;;;;;;25.58;42.73;99886.69;4260462;33;33969;-63
2023/05/25 03:38:57;;;;;;;10.00;7.18;;;;;;;25.58;42.65;99889.41;4260715;33;34034;-63
2023/05/25 03:41:25;;;;;;;7.50;6.28;;;;;;;25.58;42.70;99889.41;4260170;33;33935;-63
2023/05/25 03:43:53;;;;;;;8.82;5.97;;;;;;;25.58;42.80;99897.62;4260233;33;33261;-64
2023/05/25 03:46:21;;;;;;;6.87;5.80;;;;;;;25.58;42.92;99888.59;4260362;33;33851;-63
2023/05/25 03:48:48;;;;;;;6.80;5.20;;;;;;;25.58;43.01;99894.06;4260463;33;34162;-64
2023/05/25 03:51:16;;;;;;;8.13;5.20;;;;;;;25.59;43.08;99901.19;4260212;33;34101;-64
2023/05/25 03:53:44;;;;;;;5.72;4.85;;;;;;;25.58;43.25;99897.62;4260638;33;33678;-64
2023/05/25 03:56:12;;;;;;;7.47;5.03;;;;;;;25.60;43.40;99894.63;4260080;33;34637;-66
2023/05/25 03:58:39;;;;;;;7.43;5.50;;;;;;;25.60;43.55;99900.09;4259993;33;34831;-66
2023/05/25 04:01:09;;;;;;;5.95;4.60;;;;;;;25.60;43.68;99906.44;4260188;33;34865;-63
2023/05/25 04:03:37;;;;;;;8.25;4.80;;;;;;;25.61;43.74;99899.06;4260552;33;34296;-65
2023/05/25 04:06:04;;;;;;;5.97;4.80;;;;;;;25.61;43.82;99913.53;4260150;33;34549;-63
2023/05/25 04:08:32;;;;;;;7.03;5.03;;;;;;;25.62;43.88;99911.66;4259162;33;34307;-64
2023/05/25 04:11:00;;;;;;;7.12;5.65;;;;;;;25.63;43.94;99918.75;4260188;33;34977;-64
2023/05/25 04:13:28;;;;;;;6.45;5.12;;;;;;;25.63;44.05;99919.59;4260346;33;33971;-64
2023/05/25 04:15:55;;;;;;;7.62;5.25;;;;;;;25.63;44.02;99913.31;4260186;33;33725;-64
2023/05/25 04:18:24;;;;;;;7.53;4.67;;;;;;;25.63;43.97;99919.59;4259279;33;34540;-63
2023/05/25 04:20:54;;;;;;;6.53;4.82;;;;;;;25.63;44.07;99914.12;4260353;33;33689;-67
2023/05/25 04:23:22;;;;;;;8.05;5.47;;;;;;;25.63;44.02;99922.31;4247441;33;33533;-68
2023/05/25 04:25:50;;;;;;;11.55;5.37;;;;;;;25.64;44.02;99923.97;4260104;33;33991;-68
2023/05/25 04:28:18;;;;;;;8.90;5.62;;;;;;;25.65;44.09;99930.31;4260135;33;33695;-68
2023/05/25 04:30:46;;;;;;;6.57;4.70;;;;;;;25.65;44.05;99931.13;4247359;33;34030;-68
2023/05/25 04:33:16;;;;;;;8.63;5.10;;;;;;;25.65;43.96;99925.66;4260302;33;34418;-68
2023/05/25 04:35:45;;;;;;;7.07;5.25;;;;;;;25.65;43.92;99936.59;4260179;33;34505;-68
2023/05/25 04:38:16;;;;;;;7.75;5.22;;;;;;;25.65;44.01;99931.13;4259238;33;33810;-68
2023/05/25 04:40:45;;;;;;;9.20;5.70;;;;;;;25.65;44.04;99930.31;4259916;33;33936;-67
2023/05/25 04:43:16;;;;;;;8.23;5.55;;;;;;;25.65;44.06;99931.13;4259633;33;33534;-68
2023/05/25 04:45:45;;;;;;;6.87;5.43;;;;;;;25.64;44.03;99923.97;4259764;33;33650;-68
2023/05/25 04:48:14;;;;;;;9.32;6.20;;;;;;;25.65;43.94;99928.41;4259886;33;33553;-68
2023/05/25 04:50:41;;;;;;;8.35;5.57;;;;;;;25.65;43.96;99927.56;4260271;33;34179;-68
2023/05/25 04:53:09;;;;;;;8.93;5.78;;;;;;;25.65;43.97;99931.13;4260214;33;34490;-67
2023/05/25 04:55:37;;;;;;;9.27;5.55;;;;;;;25.65;44.14;99935.78;4255460;33;33861;-68
2023/05/25 04:58:04;;;;;;;8.10;4.97;;;;;;;25.64;44.12;99926.72;4251890;33;34807;-68
2023/05/25 05:00:33;;;;;;;9.68;6.03;;;;;;;25.65;44.24;99931.13;4254546;33;34334;-68
2023/05/25 05:03:01;;;;;;;9.77;5.65;;;;;;;25.66;44.31;99932.78;4251503;33;32952;-68
2023/05/25 05:05:29;;;;;;;8.32;5.93;;;;;;;25.65;44.31;99939.34;4260039;33;33758;-68
2023/05/25 05:07:58;;;;;;;7.60;5.65;;;;;;;25.65;43.96;99942.06;4255703;33;33758;-68
2023/05/25 05:10:26;;;;;;;9.73;6.47;;;;;;;25.66;43.82;99941.00;4260743;33;34160;-68
2023/05/25 05:12:54;;;;;;;9.43;6.87;;;;;;;25.65;43.90;99935.78;4260086;33;34556;-67
2023/05/25 05:15:22;;;;;;;7.65;6.30;;;;;;;25.66;43.77;99942.88;4259898;33;34751;-68
2023/05/25 05:17:50;;;;;;;8.48;6.85;;;;;;;25.65;43.61;99939.34;4253984;33;33943;-68
2023/05/25 05:20:18;;;;;;;8.02;5.70;;;;;;;25.65;43.49;99931.13;4259855;33;33666;-68
2023/05/25 05:22:46;;;;;;;8.98;6.60;;;;;;;25.65;43.82;99942.06;4259572;33;34609;-68
2023/05/25 05:25:14;;;;;;;8.73;6.50;;;;;;;25.67;43.76;99941.81;4260014;33;33822;-68
2023/05/25 05:27:41;;;;;;;8.52;6.32;;;;;;;25.65;43.73;99949.44;4259718;33;35029;-68
2023/05/25 05:30:10;;;;;;;10.30;6.72;;;;;;;25.65;43.83;99942.06;4254220;33;34081;-68
2023/05/25 05:32:39;;;;;;;8.65;6.40;;;;;;;25.65;43.71;99941.22;4245570;33;34473;-68
2023/05/25 05:35:08;;;;;;;8.25;6.20;;;;;;;25.66;43.65;99943.72;4259742;33;33913;-68
2023/05/25 05:37:37;;;;;;;8.27;6.15;;;;;;;25.65;43.76;99942.06;4259435;33;33988;-68
2023/05/25 05:40:05;;;;;;;8.43;6.05;;;;;;;25.67;44.00;99941.81;4259770;33;34062;-68
2023/05/25 05:42:33;;;;;;;8.73;6.37;;;;;;;25.65;44.16;99950.25;4259434;33;33718;-68
2023/05/25 05:45:01;;;;;;;8.07;5.62;;;;;;;25.65;44.09;99950.25;4245763;33;34114;-68
2023/05/25 05:47:29;;;;;;;7.30;5.50;;;;;;;25.66;44.20;99940.16;4245295;33;34892;-68
2023/05/25 05:49:57;;;;;;;8.90;5.20;;;;;;;25.66;44.37;99951.91;4245265;33;33995;-68
2023/05/25 05:52:25;;;;;;;10.05;6.03;;;;;;;25.65;44.28;99946.69;4245341;33;34468;-68
2023/05/25 05:54:53;;;;;;;9.63;6.78;;;;;;;25.65;44.03;99949.44;4245210;33;34696;-68
2023/05/25 05:57:20;;;;;;;10.18;6.75;;;;;;;25.65;43.72;99953.00;4244917;33;33846;-67
2023/05/25 05:59:48;;;;;;;7.82;6.30;;;;;;;25.65;43.62;99950.25;4255478;33;34341;-68
2023/05/25 06:02:16;;;;;;;8.30;6.00;;;;;;;25.65;43.67;99949.44;4259298;33;33743;-68
2023/05/25 06:04:44;;;;;;;8.43;6.00;;;;;;;25.65;43.78;99950.25;4259562;33;33906;-67
2023/05/25 06:07:12;;;;;;;8.40;5.40;;;;;;;25.65;43.99;99955.72;4259256;33;34044;-68
2023/05/25 06:09:40;;;;;;;8.00;5.87;;;;;;;25.65;44.28;99957.63;4259442;33;33854;-68
2023/05/25 06:12:08;;;;;;;8.50;6.28;;;;;;;25.64;43.95;99956.78;4259864;33;33141;-67
2023/05/25 06:14:35;;;;;;;9.18;6.75;;;;;;;25.64;43.85;99962.25;4248290;33;33767;-68
2023/05/25 06:17:03;;;;;;;9.40;6.75;;;;;;;25.65;43.72;99961.19;4260943;33;33882;-68
2023/05/25 06:19:31;;;;;;;8.80;7.12;;;;;;;25.65;43.50;99972.13;4261137;33;33955;-68
2023/05/25 06:21:58;;;;;;;7.72;6.05;;;;;;;25.63;43.56;99966.03;4260860;33;33441;-68
2023/05/25 06:24:26;;;;;;;9.50;6.45;;;;;;;25.63;43.70;99965.22;4259762;33;33891;-68
2023/05/25 06:26:54;;;;;;;7.65;6.32;;;;;;;25.63;43.89;99967.94;4260895;33;33973;-68
2023/05/25 06:29:21;;;;;;;8.38;6.75;;;;;;;25.63;43.78;99967.94;4260884;33;34040;-68
2023/05/25 06:31:49;;;;;;;8.48;6.72;;;;;;;25.63;43.62;99963.31;4260809;33;34277;-67
2023/05/25 06:34:17;;;;;;;9.82;6.70;;;;;;;25.63;43.58;99970.69;4260834;33;34860;-68
2023/05/25 06:36:45;;;;;;;9.25;7.07;;;;;;;25.63;43.62;99968.78;4260994;33;33904;-68
2023/05/25 06:39:13;;;;;;;8.07;6.30;;;;;;;25.63;43.52;99971.50;4260862;33;33649;-68
2023/05/25 06:41:42;;;;;;;9.45;7.15;;;;;;;25.62;43.55;99964.38;4260878;33;33617;-68
2023/05/25 06:44:09;;;;;;;9.98;7.28;;;;;;;25.63;43.41;99963.31;4260650;33;34580;-67
2023/05/25 06:46:38;;;;;;;9.52;7.93;;;;;;;25.63;43.37;99973.41;4260826;33;33957;-68
2023/05/25 06:49:07;;;;;;;9.63;8.00;;;;;;;25.62;43.42;99969.84;4260638;33;34307;-68
2023/05/25 06:51:36;;;;;;;10.75;7.57;;;;;;;25.61;43.36;99972.84;4260837;33;33349;-68
2023/05/25 06:54:03;;;;;;;8.32;7.30;;;;;;;25.60;43.44;99973.88;4260698;33;33976;-68
2023/05/25 06:56:31;;;;;;;11.32;7.68;;;;;;;25.59;43.42;99969.50;4260678;33;34715;-68
2023/05/25 06:58:58;;;;;;;9.05;7.25;;;;;;;25.58;43.47;99974.12;4260767;33;34170;-68
2023/05/25 07:01:26;;;;;;;11.90;7.95;;;;;;;25.59;43.68;99980.41;4260698;33;34265;-68
2023/05/25 07:03:54;;;;;;;9.43;7.05;;;;;;;25.58;43.71;99978.75;4260545;33;33672;-68
2023/05/25 07:06:22;;;;;;;8.15;7.15;;;;;;;25.58;43.60;99978.75;4260927;33;33908;-68
2023/05/25 07:08:49;;;;;;;10.70;7.53;;;;;;;25.57;43.74;99983.41;4260576;33;34109;-68
2023/05/25 07:11:20;;;;;;;9.38;7.47;;;;;;;25.56;43.67;99981.75;4260514;33;33672;-68
2023/05/25 07:13:48;;;;;;;9.73;7.45;;;;;;;25.57;43.74;99986.13;4259438;33;33905;-68
2023/05/25 07:16:15;;;;;;;10.60;7.60;;;;;;;25.57;43.71;99988.03;4260544;33;34436;-68
2023/05/25 07:18:43;;;;;;;8.32;6.62;;;;;;;25.56;43.78;99987.22;4260774;33;33863;-68
2023/05/25 07:21:11;;;;;;;9.32;7.10;;;;;;;25.58;43.85;99986.97;4260519;33;33927;-68
2023/05/25 07:23:41;;;;;;;10.65;7.75;;;;;;;25.57;43.87;99990.75;4260214;33;34058;-68
2023/05/25 07:26:09;;;;;;;10.45;7.80;;;;;;;25.57;43.94;99994.31;4260354;33;34058;-68
2023/05/25 07:28:36;;;;;;;9.88;7.35;;;;;;;25.57;43.93;99988.88;4260582;33;35049;-68
2023/05/25 07:31:04;;;;;;;8.95;6.95;;;;;;;25.58;43.96;99989.69;4260875;33;33581;-68
2023/05/25 07:33:32;;;;;;;10.18;7.60;;;;;;;25.58;44.02;99987.78;4260355;33;33997;-68
2023/05/25 07:35:59;;;;;;;10.55;7.10;;;;;;;25.57;44.06;99986.13;4260467;33;34003;-68
2023/05/25 07:38:27;;;;;;;8.30;6.65;;;;;;;25.58;44.08;99982.31;4260455;33;34001;-68
2023/05/25 07:40:54;;;;;;;12.52;7.32;;;;;;;25.60;44.15;99993.00;4260317;33;33435;-68
2023/05/25 07:43:23;;;;;;;10.00;7.65;;;;;;;25.60;44.14;99987.53;4260680;33;33387;-68
2023/05/25 07:45:51;;;;;;;8.88;7.53;;;;;;;25.59;44.16;99992.19;4260423;33;33819;-68
2023/05/25 07:48:18;;;;;;;9.02;7.65;;;;;;;25.60;44.22;99998.47;4260500;33;33822;-68
2023/05/25 07:50:46;;;;;;;9.77;7.93;;;;;;;25.61;44.25;99998.25;4259389;33;33527;-68
2023/05/25 07:53:13;;;;;;;10.35;7.50;;;;;;;25.61;44.29;99995.53;4260418;33;33985;-68
2023/05/25 07:55:41;;;;;;;9.38;7.45;;;;;;;25.62;44.29;99999.09;4260326;33;33643;-68
2023/05/25 07:58:09;;;;;;;11.75;7.90;;;;;;;25.61;44.30;99995.53;4260215;33;34900;-68
2023/05/25 08:00:37;;;;;;;12.57;6.95;;;;;;;25.62;44.26;99997.19;4258955;33;34432;-68
2023/05/25 08:03:04;;;;;;;9.05;7.87;;;;;;;25.62;44.27;99991.72;4260309;33;33734;-68
2023/05/25 08:05:32;;;;;;;9.15;7.35;;;;;;;25.64;44.20;99988.72;4260584;33;34144;-68
2023/05/25 08:08:00;;;;;;;11.70;6.93;;;;;;;25.64;44.23;99992.28;4260232;33;33731;-68
2023/05/25 08:10:31;;;;;;;11.10;7.55;;;;;;;25.64;44.23;99986.00;4260275;33;33384;-68
2023/05/25 08:12:58;;;;;;;11.52;7.53;;;;;;;25.65;44.19;99994.00;4260248;33;33862;-68
2023/05/25 08:15:26;;;;;;;9.10;7.65;;;;;;;25.66;44.18;99998.38;4260097;33;34787;-68
2023/05/25 08:17:55;;;;;;;12.52;7.90;;;;;;;25.65;44.19;99988.53;4260496;33;34120;-68
2023/05/25 08:20:24;;;;;;;11.35;7.85;;;;;;;25.66;44.19;99994.81;4260293;33;34200;-68
2023/05/25 08:22:52;;;;;;;10.43;7.85;;;;;;;25.66;44.19;99998.38;4260083;33;33861;-68
2023/05/25 08:25:20;;;;;;;12.45;7.50;;;;;;;25.67;44.17;100001.94;4260213;33;33736;-68
2023/05/25 08:27:48;;;;;;;11.73;7.78;;;;;;;25.67;44.19;100000.03;4260045;33;33967;-68
2023/05/25 08:30:15;;;;;;;11.77;7.55;;;;;;;25.67;44.19;99994.56;4260082;33;34395;-68
2023/05/25 08:32:43;;;;;;;10.20;7.28;;;;;;;25.67;44.19;99996.47;4260148;33;33944;-68
2023/05/25 08:35:12;;;;;;;10.68;7.32;;;;;;;25.67;44.19;99999.22;4259492;33;34797;-68
2023/05/25 08:37:42;;;;;;;11.60;7.53;;;;;;;25.68;44.16;99995.41;4259643;33;34010;-68
2023/05/25 08:40:14;;;;;;;10.50;7.62;;;;;;;25.70;44.15;99996.84;4260015;33;33708;-68
2023/05/25 08:42:44;;;;;;;12.50;8.00;;;;;;;25.69;44.14;99995.19;4260079;33;34132;-68
2023/05/25 08:45:12;;;;;;;10.55;7.43;;;;;;;25.68;44.13;99998.97;4233087;33;33791;-68
2023/05/25 08:47:59;;;;;;;8.98;6.97;;;;;;;25.70;44.07;100004.22;4245794;33;35019;-68
2023/05/25 08:50:27;;;;;;;9.35;7.22;;;;;;;25.70;44.13;99998.75;4233142;33;33486;-68
2023/05/25 08:52:55;;;;;;;10.07;6.62;;;;;;;25.70;44.18;100002.31;4233089;33;33824;-68
2023/05/25 08:55:22;;;;;;;9.73;7.25;;;;;;;25.70;44.22;100005.03;4232835;33;33775;-68
2023/05/25 08:57:54;;;;;;;12.57;7.72;;;;;;;25.71;44.22;100003.13;4232975;33;34328;-68
2023/05/25 09:00:28;;;;;;;10.75;7.00;;;;;;;25.73;44.22;100002.87;4233235;33;33221;-68
2023/05/25 09:03:24;;;;;;;10.65;6.85;;;;;;;25.72;44.24;100004.78;4221517;33;33787;-68
2023/05/25 09:05:51;;;;;;;11.75;7.65;;;;;;;25.75;44.26;100000.75;4244492;33;33825;-68
2023/05/25 09:08:21;;;;;;;9.05;7.60;;;;;;;25.74;44.22;99997.19;4233203;33;34188;-68
2023/05/25 09:10:49;;;;;;;8.43;7.25;;;;;;;25.75;44.15;99995.28;4221348;33;33715;-68
2023/05/25 09:13:16;;;;;;;8.70;7.78;;;;;;;25.74;44.20;99999.06;4232862;33;33997;-68
2023/05/25 09:15:49;;;;;;;9.13;7.53;;;;;;;25.75;44.22;99998.03;4245576;33;34596;-68
2023/05/25 09:18:17;;;;;;;9.02;7.35;;;;;;;25.77;44.21;100001.38;4252041;33;34761;-69
2023/05/25 09:20:44;;;;;;;8.35;6.97;;;;;;;25.76;44.24;99991.53;4246754;33;33646;-69
2023/05/25 09:23:14;;;;;;;10.40;7.37;;;;;;;25.75;44.29;99995.28;4259737;33;34733;-69
2023/05/25 09:25:43;;;;;;;10.82;8.38;;;;;;;25.76;44.31;100000.53;4257636;33;34185;-68
2023/05/25 09:28:10;;;;;;;9.60;7.32;;;;;;;25.77;44.37;99999.47;4262382;33;34215;-68
2023/05/25 09:30:41;;;;;;;11.75;7.93;;;;;;;25.78;44.30;99995.66;4251497;33;34188;-68
2023/05/25 09:33:12;;;;;;;18.80;9.48;;;;;;;25.79;44.22;99996.53;4245776;33;33909;-68
2023/05/25 09:35:39;;;;;;;9.13;8.10;;;;;;;25.80;44.04;100000.91;4269295;33;33740;-68
2023/05/25 09:38:07;;;;;;;9.68;8.15;;;;;;;25.79;43.91;100000.09;4257336;33;34042;-68
2023/05/25 09:40:36;;;;;;;9.05;7.32;;;;;;;25.80;43.93;100000.91;4259311;33;33773;-68
2023/05/25 09:43:04;;;;;;;9.43;7.78;;;;;;;25.79;43.89;100002.81;4258024;33;34436;-68
2023/05/25 09:45:32;;;;;;;9.40;8.18;;;;;;;25.80;43.89;100009.94;4258283;33;34020;-68
2023/05/25 09:47:59;;;;;;;9.88;7.10;;;;;;;25.79;43.89;100004.72;4260301;33;34831;-68
2023/05/25 09:50:28;;;;;;;10.35;7.85;;;;;;;25.79;43.95;100000.09;4248326;33;33504;-68
2023/05/25 09:52:58;;;;;;;11.85;8.88;;;;;;;25.80;43.95;100007.22;4261034;33;34695;-68
2023/05/25 09:55:29;;;;;;;9.60;8.27;;;;;;;25.81;43.97;100003.41;4247964;33;34772;-68
2023/05/25 09:58:16;;;;;;;10.02;8.13;;;;;;;25.82;43.64;100007.78;4259897;33;34856;-67
2023/05/25 10:00:44;;;;;;;10.32;8.38;;;;;;;25.82;43.52;100006.97;4260914;33;33656;-68
2023/05/25 10:03:14;;;;;;;10.48;8.27;;;;;;;25.82;43.58;99999.59;4259805;33;33608;-68
2023/05/25 10:05:42;;;;;;;9.55;8.55;;;;;;;25.84;43.63;100011.13;4261081;33;33936;-67
2023/05/25 10:08:09;;;;;;;9.23;7.95;;;;;;;25.83;43.59;100003.97;4247990;33;34048;-68
2023/05/25 10:10:37;;;;;;;10.38;8.27;;;;;;;25.83;43.65;100009.44;4248204;33;33268;-67
2023/05/25 10:13:05;;;;;;;10.00;8.20;;;;;;;25.86;43.45;100011.72;4259777;33;33629;-68
2023/05/25 10:15:32;;;;;;;10.20;7.85;;;;;;;25.85;43.47;100001.84;4247956;33;33703;-68
2023/05/25 10:18:00;;;;;;;9.45;8.13;;;;;;;25.85;43.38;100001.03;4259640;33;34416;-68
2023/05/25 10:20:28;;;;;;;9.13;7.30;;;;;;;25.85;43.47;100006.50;4260973;33;32458;-68
2023/05/25 10:23:12;;;;;;;9.80;7.32;;;;;;;25.84;43.45;100004.84;4250787;33;34740;-68
2023/05/25 10:25:45;;;;;;;8.85;7.47;;;;;;;25.85;43.51;99995.56;4271418;33;33912;-68
2023/05/25 10:28:16;;;;;;;9.98;7.32;;;;;;;25.84;43.59;99991.19;4260962;33;33896;-67
2023/05/25 10:30:44;;;;;;;10.32;8.02;;;;;;;25.84;43.62;99982.97;4271245;33;33626;-68
2023/05/25 10:33:12;;;;;;;8.50;7.47;;;;;;;25.85;43.63;99990.09;4271380;33;33985;-68
2023/05/25 10:35:39;;;;;;;9.63;7.40;;;;;;;25.86;43.58;99995.31;4247884;33;33820;-68
2023/05/25 10:38:27;;;;;;;11.02;7.60;;;;;;;25.85;43.58;99982.72;4250095;33;34582;-68
2023/05/25 10:40:55;;;;;;;8.63;7.30;;;;;;;25.90;43.48;99976.53;4247807;33;33220;-68
2023/05/25 10:43:22;;;;;;;7.53;6.72;;;;;;;25.88;43.57;99984.13;4247929;33;33580;-68
2023/05/25 10:45:50;;;;;;;10.90;7.70;;;;;;;25.86;43.59;99976.19;4260732;33;34163;-68
2023/05/25 10:48:18;;;;;;;9.18;7.30;;;;;;;25.87;43.56;99975.09;4259494;33;35149;-68
2023/05/25 10:50:51;;;;;;;9.15;7.37;;;;;;;25.88;43.45;99979.53;4261125;33;33843;-68
2023/05/25 10:53:20;;;;;;;8.27;7.35;;;;;;;25.90;43.21;99982.84;4260640;33;34064;-68
2023/05/25 10:55:50;;;;;;;9.65;6.72;;;;;;;25.91;43.19;99981.75;4260606;33;33897;-68
2023/05/25 10:58:20;;;;;;;8.55;7.00;;;;;;;25.90;43.27;99974.62;4260144;33;34116;-68
2023/05/25 11:01:02;;;;;;;9.80;6.83;;;;;;;25.91;43.35;99976.28;4271001;33;33803;-68
2023/05/25 11:03:42;;;;;;;8.85;6.45;;;;;;;25.94;43.28;99986.75;4260675;33;33990;-68
2023/05/25 11:06:11;;;;;;;11.30;7.32;;;;;;;25.94;43.34;99977.72;4252952;33;35065;-68
2023/05/25 11:08:54;;;;;;;8.15;6.50;;;;;;;25.91;43.39;99972.72;4256521;33;35105;-68
2023/05/25 11:11:25;;;;;;;8.90;7.10;;;;;;;25.93;43.38;99965.13;4260824;33;33668;-68
2023/05/25 11:13:53;;;;;;;9.88;6.18;;;;;;;25.92;43.42;99977.13;4271147;33;33439;-68
2023/05/25 11:16:34;;;;;;;8.52;6.55;;;;;;;25.94;43.26;99970.34;4260637;33;34407;-68
2023/05/25 11:19:02;;;;;;;10.15;6.60;;;;;;;25.95;43.18;99965.72;4260592;33;34340;-68
2023/05/25 11:21:33;;;;;;;9.15;6.18;;;;;;;25.95;43.14;99960.25;4259696;33;33403;-68
2023/05/25 11:24:02;;;;;;;9.25;6.95;;;;;;;25.95;43.08;99965.72;4248860;33;33837;-68
2023/05/25 11:26:32;;;;;;;8.57;6.85;;;;;;;25.96;42.95;99961.91;4245123;33;32685;-68
2023/05/25 11:29:00;;;;;;;7.68;6.05;;;;;;;25.98;42.86;99961.69;4245131;33;33528;-68
2023/05/25 11:31:31;;;;;;;8.52;6.35;;;;;;;25.97;42.81;99954.53;4246446;33;33760;-68
2023/05/25 11:34:05;;;;;;;9.63;7.30;;;;;;;25.98;42.74;99951.59;4246415;33;33697;-68
2023/05/25 11:36:35;;;;;;;8.60;6.43;;;;;;;25.99;42.58;99952.41;4246219;33;34703;-68
2023/05/25 11:39:03;;;;;;;9.70;6.20;;;;;;;26.01;42.31;99953.81;4246278;33;33951;-68
2023/05/25 11:41:57;;;;;;;10.05;6.40;;;;;;;26.00;42.44;99949.41;4234644;33;34290;-68